createdAt,value
2023-04-29T00:00:15.025Z,31.65
2023-04-29T00:01:14.994Z,31.69
2023-04-29T00:02:14.984Z,31.68
2023-04-29T00:03:15.138Z,31.68
2023-04-29T00:04:15.239Z,31.65
2023-04-29T00:05:15.171Z,31.69
2023-04-29T00:06:15.213Z,31.68
2023-04-29T00:07:14.862Z,31.67
2023-04-29T00:08:14.841Z,31.70
2023-04-29T00:09:14.854Z,31.68
2023-04-29T00:10:14.841Z,31.68
2023-04-29T00:11:14.802Z,31.68
2023-04-29T00:12:14.786Z,31.68
2023-04-29T00:13:14.770Z,31.68
2023-04-29T00:14:14.738Z,31.69
2023-04-29T00:15:14.750Z,31.70
2023-04-29T00:16:14.711Z,31.70
2023-04-29T00:17:14.728Z,31.67
2023-04-29T00:18:14.686Z,31.68
2023-04-29T00:19:15.023Z,31.70
2023-04-29T00:20:14.667Z,31.68
2023-04-29T00:21:14.648Z,31.70
2023-04-29T00:22:14.644Z,31.71
2023-04-29T00:23:14.634Z,31.72
2023-04-29T00:24:14.610Z,31.71
2023-04-29T00:25:14.608Z,31.71
2023-04-29T00:26:14.591Z,31.70
2023-04-29T00:27:14.570Z,31.70
2023-04-29T00:28:14.575Z,31.71
2023-04-29T00:29:14.547Z,31.71
2023-04-29T00:30:14.530Z,31.69
2023-04-29T00:31:14.694Z,31.70
2023-04-29T00:32:14.497Z,31.68
2023-04-29T00:33:14.492Z,31.70
2023-04-29T00:34:14.487Z,31.69
2023-04-29T00:35:14.505Z,31.71
2023-04-29T00:36:14.483Z,31.68
2023-04-29T00:37:14.452Z,31.71
2023-04-29T00:38:14.443Z,31.70
2023-04-29T00:39:15.382Z,31.70
2023-04-29T00:40:14.413Z,31.70
2023-04-29T00:41:14.409Z,31.67
2023-04-29T00:42:14.384Z,31.70
2023-04-29T00:43:14.376Z,31.69
2023-04-29T00:44:14.422Z,31.70
2023-04-29T00:45:14.365Z,31.70
2023-04-29T00:46:14.380Z,31.70
2023-04-29T00:47:14.347Z,31.69
2023-04-29T00:48:14.322Z,31.68
2023-04-29T00:49:14.313Z,31.70
2023-04-29T00:50:14.296Z,31.67
2023-04-29T00:51:14.294Z,31.69
2023-04-29T00:52:14.264Z,31.69
2023-04-29T00:53:14.244Z,31.67
2023-04-29T00:54:14.239Z,31.67
2023-04-29T00:55:14.205Z,31.71
2023-04-29T00:56:14.194Z,31.69
2023-04-29T00:57:14.174Z,31.69
2023-04-29T00:58:14.162Z,31.68
2023-04-29T00:59:14.151Z,31.68
2023-04-29T01:00:14.144Z,31.69
2023-04-29T01:01:14.137Z,31.72
2023-04-29T01:02:14.090Z,31.71
2023-04-29T01:03:14.219Z,31.68
2023-04-29T01:04:14.247Z,31.67
2023-04-29T01:05:14.073Z,31.68
2023-04-29T01:06:14.011Z,31.68
2023-04-29T01:07:14.034Z,31.69
2023-04-29T01:08:15.362Z,31.70
2023-04-29T01:09:13.987Z,31.68
2023-04-29T01:10:13.971Z,31.69
2023-04-29T01:11:14.070Z,31.70
2023-04-29T01:12:13.970Z,31.70
2023-04-29T01:13:13.954Z,31.67
2023-04-29T01:14:13.925Z,31.70
2023-04-29T01:15:13.920Z,31.68
2023-04-29T01:16:13.935Z,31.68
2023-04-29T01:17:13.887Z,31.68
2023-04-29T01:18:13.871Z,31.68
2023-04-29T01:19:13.863Z,31.70
2023-04-29T01:20:13.861Z,31.70
2023-04-29T01:21:13.860Z,31.69
2023-04-29T01:22:13.822Z,31.71
2023-04-29T01:23:13.859Z,31.70
2023-04-29T01:24:13.792Z,31.70
2023-04-29T01:25:13.781Z,31.68
2023-04-29T01:26:13.770Z,31.71
2023-04-29T01:27:13.773Z,31.69
2023-04-29T01:28:13.738Z,31.68
2023-04-29T01:29:13.741Z,31.69
2023-04-29T01:30:13.713Z,31.70
2023-04-29T01:31:13.754Z,31.69
2023-04-29T01:32:13.717Z,31.68
2023-04-29T01:33:13.811Z,31.68
2023-04-29T01:34:13.675Z,31.72
2023-04-29T01:35:13.678Z,31.71
2023-04-29T01:36:13.653Z,31.70
2023-04-29T01:37:13.656Z,31.68
2023-04-29T01:38:13.625Z,31.70
2023-04-29T01:39:13.617Z,31.70
2023-04-29T01:40:13.622Z,31.71
2023-04-29T01:41:13.596Z,31.71
2023-04-29T01:42:13.585Z,31.70
2023-04-29T01:43:13.567Z,31.68
2023-04-29T01:44:13.556Z,31.70
2023-04-29T01:45:13.525Z,31.70
2023-04-29T01:46:13.565Z,31.72
2023-04-29T01:47:13.516Z,31.73
2023-04-29T01:48:13.507Z,31.69
2023-04-29T01:49:13.502Z,31.72
2023-04-29T01:50:13.497Z,31.73
2023-04-29T01:51:13.510Z,31.74
2023-04-29T01:52:13.510Z,31.73
2023-04-29T01:53:13.517Z,31.71
2023-04-29T01:54:13.502Z,31.71
2023-04-29T01:55:13.514Z,31.74
2023-04-29T01:56:13.519Z,31.73
2023-04-29T01:57:13.511Z,31.74
2023-04-29T01:58:13.520Z,31.74
2023-04-29T01:59:13.493Z,31.73
2023-04-29T02:00:13.525Z,31.72
2023-04-29T02:01:13.544Z,31.71
2023-04-29T02:02:13.483Z,31.72
2023-04-29T02:03:13.594Z,31.71
2023-04-29T02:04:13.535Z,31.70
2023-04-29T02:05:13.472Z,31.71
2023-04-29T02:06:13.454Z,31.70
2023-04-29T02:07:13.425Z,31.70
2023-04-29T02:08:13.403Z,31.70
2023-04-29T02:09:13.371Z,31.71
2023-04-29T02:10:13.368Z,31.69
2023-04-29T02:11:13.330Z,31.69
2023-04-29T02:12:13.296Z,31.71
2023-04-29T02:13:13.268Z,31.71
2023-04-29T02:14:13.243Z,31.70
2023-04-29T02:15:13.238Z,31.70
2023-04-29T02:16:13.266Z,31.73
2023-04-29T02:17:13.171Z,31.70
2023-04-29T02:18:13.148Z,31.69
2023-04-29T02:19:13.140Z,31.69
2023-04-29T02:20:13.128Z,31.71
2023-04-29T02:21:13.094Z,31.71
2023-04-29T02:22:13.080Z,31.71
2023-04-29T02:23:13.049Z,31.70
2023-04-29T02:24:13.025Z,31.74
2023-04-29T02:25:13.018Z,31.73
2023-04-29T02:26:12.991Z,31.71
2023-04-29T02:27:12.951Z,31.71
2023-04-29T02:28:12.934Z,31.71
2023-04-29T02:29:12.915Z,31.71
2023-04-29T02:30:12.888Z,31.69
2023-04-29T02:31:12.875Z,31.71
2023-04-29T02:32:12.882Z,31.70
2023-04-29T02:33:12.880Z,31.71
2023-04-29T02:34:12.793Z,31.71
2023-04-29T02:35:12.786Z,31.71
2023-04-29T02:36:12.771Z,31.71
2023-04-29T02:37:12.728Z,31.73
2023-04-29T02:38:12.700Z,31.72
2023-04-29T02:39:12.685Z,31.74
2023-04-29T02:40:12.660Z,31.72
2023-04-29T02:41:12.654Z,31.71
2023-04-29T02:42:12.630Z,31.72
2023-04-29T02:43:12.589Z,31.73
2023-04-29T02:44:12.594Z,31.70
2023-04-29T02:45:12.537Z,31.69
2023-04-29T02:46:12.610Z,31.70
2023-04-29T02:47:12.505Z,31.69
2023-04-29T02:48:12.604Z,31.71
2023-04-29T02:49:12.442Z,31.69
2023-04-29T02:50:12.446Z,31.70
2023-04-29T02:51:12.401Z,31.69
2023-04-29T02:52:12.437Z,31.70
2023-04-29T02:53:12.412Z,31.71
2023-04-29T02:54:12.358Z,31.71
2023-04-29T02:55:12.312Z,31.72
2023-04-29T02:56:12.274Z,31.69
2023-04-29T02:57:12.241Z,31.70
2023-04-29T02:58:12.218Z,31.72
2023-04-29T02:59:12.184Z,31.71
2023-04-29T03:00:12.176Z,31.71
2023-04-29T03:01:12.159Z,31.70
2023-04-29T03:02:12.224Z,31.71
2023-04-29T03:03:12.168Z,31.74
2023-04-29T03:04:12.229Z,31.74
2023-04-29T03:05:12.089Z,31.71
2023-04-29T03:06:12.036Z,31.72
2023-04-29T03:07:12.007Z,31.69
2023-04-29T03:08:11.964Z,31.74
2023-04-29T03:09:11.950Z,31.74
2023-04-29T03:10:11.920Z,31.73
2023-04-29T03:11:11.898Z,31.74
2023-04-29T03:12:11.889Z,31.73
2023-04-29T03:13:11.865Z,31.74
2023-04-29T03:14:11.827Z,31.73
2023-04-29T03:15:11.807Z,31.75
2023-04-29T03:16:11.842Z,31.75
2023-04-29T03:17:11.776Z,31.74
2023-04-29T03:18:11.773Z,31.73
2023-04-29T03:19:11.725Z,31.73
2023-04-29T03:20:11.712Z,31.72
2023-04-29T03:21:11.683Z,31.72
2023-04-29T03:22:11.647Z,31.73
2023-04-29T03:23:11.619Z,31.73
2023-04-29T03:24:11.615Z,31.72
2023-04-29T03:25:11.602Z,31.74
2023-04-29T03:26:11.614Z,31.75
2023-04-29T03:27:11.566Z,31.74
2023-04-29T03:28:11.501Z,31.74
2023-04-29T03:29:11.489Z,31.73
2023-04-29T03:30:11.460Z,31.74
2023-04-29T03:31:11.465Z,31.73
2023-04-29T03:32:11.421Z,31.71
2023-04-29T03:33:11.403Z,31.74
2023-04-29T03:34:11.392Z,31.72
2023-04-29T03:35:12.848Z,31.75
2023-04-29T03:36:11.335Z,31.72
2023-04-29T03:37:11.339Z,31.70
2023-04-29T03:38:11.276Z,31.73
2023-04-29T03:39:11.266Z,31.73
2023-04-29T03:40:11.234Z,31.73
2023-04-29T03:41:11.216Z,31.73
2023-04-29T03:42:11.196Z,31.71
2023-04-29T03:43:11.146Z,31.73
2023-04-29T03:44:11.110Z,31.72
2023-04-29T03:45:11.101Z,31.74
2023-04-29T03:46:11.131Z,31.70
2023-04-29T03:47:11.058Z,31.74
2023-04-29T03:48:11.025Z,31.75
2023-04-29T03:49:11.018Z,31.74
2023-04-29T03:50:10.971Z,31.73
2023-04-29T03:51:10.950Z,31.74
2023-04-29T03:52:10.955Z,31.72
2023-04-29T03:53:10.888Z,31.75
2023-04-29T03:54:10.851Z,31.74
2023-04-29T03:55:10.851Z,31.74
2023-04-29T03:56:10.811Z,31.73
2023-04-29T03:57:10.791Z,31.72
2023-04-29T03:58:10.747Z,31.74
2023-04-29T03:59:10.744Z,31.74
2023-04-29T04:00:10.725Z,31.74
2023-04-29T04:01:10.671Z,31.73
2023-04-29T04:02:10.676Z,31.72
2023-04-29T04:03:10.747Z,31.73
2023-04-29T04:04:10.692Z,31.70
2023-04-29T04:05:10.699Z,31.72
2023-04-29T04:06:10.535Z,31.68
2023-04-29T04:07:10.514Z,31.70
2023-04-29T04:08:10.483Z,31.71
2023-04-29T04:09:10.462Z,31.72
2023-04-29T04:10:10.456Z,31.71
2023-04-29T04:11:10.427Z,31.71
2023-04-29T04:12:10.408Z,31.71
2023-04-29T04:13:10.365Z,31.72
2023-04-29T04:14:10.363Z,31.72
2023-04-29T04:15:10.328Z,31.69
2023-04-29T04:16:10.348Z,31.70
2023-04-29T04:17:10.278Z,31.71
2023-04-29T04:18:10.343Z,31.71
2023-04-29T04:19:10.228Z,31.72
2023-04-29T04:20:10.230Z,31.69
2023-04-29T04:21:10.237Z,31.69
2023-04-29T04:22:11.630Z,31.69
2023-04-29T04:23:10.188Z,31.71
2023-04-29T04:24:10.124Z,31.71
2023-04-29T04:25:10.108Z,31.69
2023-04-29T04:26:10.070Z,31.68
2023-04-29T04:27:10.056Z,31.68
2023-04-29T04:28:10.015Z,31.69
2023-04-29T04:29:10.068Z,31.68
2023-04-29T04:30:09.966Z,31.70
2023-04-29T04:31:10.003Z,31.70
2023-04-29T04:32:10.123Z,31.68
2023-04-29T04:33:09.899Z,31.66
2023-04-29T04:34:09.861Z,31.70
2023-04-29T04:35:09.829Z,31.70
2023-04-29T04:36:09.799Z,31.67
2023-04-29T04:37:09.785Z,31.69
2023-04-29T04:38:09.753Z,31.68
2023-04-29T04:39:09.717Z,31.66
2023-04-29T04:40:09.704Z,31.68
2023-04-29T04:41:09.759Z,31.67
2023-04-29T04:42:09.653Z,31.67
2023-04-29T04:43:09.621Z,31.68
2023-04-29T04:44:09.590Z,31.66
2023-04-29T04:45:09.554Z,31.68
2023-04-29T04:46:09.589Z,31.68
2023-04-29T04:47:09.504Z,31.67
2023-04-29T04:48:09.712Z,31.66
2023-04-29T04:49:09.456Z,31.68
2023-04-29T04:50:09.413Z,31.67
2023-04-29T04:51:09.396Z,31.68
2023-04-29T04:52:09.378Z,31.67
2023-04-29T04:53:09.404Z,31.68
2023-04-29T04:54:09.383Z,31.66
2023-04-29T04:55:09.378Z,31.65
2023-04-29T04:56:09.387Z,31.65
2023-04-29T04:57:09.402Z,31.66
2023-04-29T04:58:09.369Z,31.66
2023-04-29T04:59:09.407Z,31.66
2023-04-29T05:00:09.414Z,31.64
2023-04-29T05:01:09.502Z,31.65
2023-04-29T05:02:09.474Z,31.66
2023-04-29T05:03:09.576Z,31.66
2023-04-29T05:04:09.722Z,31.65
2023-04-29T05:05:09.491Z,31.65
2023-04-29T05:06:09.512Z,31.65
2023-04-29T05:07:09.539Z,31.65
2023-04-29T05:08:09.573Z,31.65
2023-04-29T05:09:09.622Z,31.64
2023-04-29T05:10:09.651Z,31.66
2023-04-29T05:11:09.640Z,31.62
2023-04-29T05:12:09.655Z,31.65
2023-04-29T05:13:09.652Z,31.66
2023-04-29T05:14:09.641Z,31.65
2023-04-29T05:15:09.638Z,31.66
2023-04-29T05:16:09.673Z,31.66
2023-04-29T05:17:09.634Z,31.64
2023-04-29T05:18:09.614Z,31.64
2023-04-29T05:19:09.640Z,31.65
2023-04-29T05:20:09.651Z,31.65
2023-04-29T05:21:09.651Z,31.67
2023-04-29T05:22:09.690Z,31.66
2023-04-29T05:23:09.747Z,31.66
2023-04-29T05:24:09.814Z,31.66
2023-04-29T05:25:09.839Z,31.65
2023-04-29T05:26:09.864Z,31.66
2023-04-29T05:27:09.915Z,31.65
2023-04-29T05:28:09.964Z,31.68
2023-04-29T05:29:09.998Z,31.67
2023-04-29T05:30:10.053Z,31.67
2023-04-29T05:31:10.128Z,31.66
2023-04-29T05:32:10.177Z,31.65
2023-04-29T05:33:10.199Z,31.64
2023-04-29T05:34:10.234Z,31.67
2023-04-29T05:35:10.320Z,31.65
2023-04-29T05:36:10.343Z,31.67
2023-04-29T05:37:10.367Z,31.67
2023-04-29T05:38:10.389Z,31.65
2023-04-29T05:39:10.428Z,31.65
2023-04-29T05:40:10.475Z,31.66
2023-04-29T05:41:10.515Z,31.66
2023-04-29T05:42:10.581Z,31.65
2023-04-29T05:43:10.585Z,31.66
2023-04-29T05:44:10.604Z,31.67
2023-04-29T05:45:10.629Z,31.65
2023-04-29T05:46:10.642Z,31.67
2023-04-29T05:47:10.636Z,31.67
2023-04-29T05:48:10.644Z,31.66
2023-04-29T05:49:10.650Z,31.66
2023-04-29T05:50:10.654Z,31.66
2023-04-29T05:51:10.657Z,31.63
2023-04-29T05:52:10.681Z,31.62
2023-04-29T05:53:10.650Z,31.60
2023-04-29T05:54:10.674Z,31.61
2023-04-29T05:55:10.671Z,31.60
2023-04-29T05:56:10.691Z,31.61
2023-04-29T05:57:10.726Z,31.61
2023-04-29T05:58:10.730Z,31.60
2023-04-29T05:59:10.733Z,31.61
2023-04-29T06:00:10.738Z,31.62
2023-04-29T06:01:10.783Z,31.62
2023-04-29T06:02:10.786Z,31.60
2023-04-29T06:03:10.910Z,31.59
2023-04-29T06:04:10.869Z,31.60
2023-04-29T06:05:11.201Z,31.61
2023-04-29T06:06:11.048Z,31.60
2023-04-29T06:07:10.930Z,31.60
2023-04-29T06:08:10.967Z,31.57
2023-04-29T06:09:23.991Z,31.57
2023-04-29T06:10:11.992Z,31.57
2023-04-29T06:11:11.027Z,31.55
2023-04-29T06:12:10.951Z,31.54
2023-04-29T06:13:11.001Z,31.55
2023-04-29T06:14:10.909Z,31.55
2023-04-29T06:15:10.890Z,31.55
2023-04-29T06:16:10.984Z,31.51
2023-04-29T06:17:10.870Z,31.52
2023-04-29T06:18:10.856Z,31.51
2023-04-29T06:19:10.931Z,31.50
2023-04-29T06:20:10.918Z,31.49
2023-04-29T06:21:10.968Z,31.45
2023-04-29T06:22:11.032Z,31.44
2023-04-29T06:23:11.072Z,31.46
2023-04-29T06:24:11.113Z,31.46
2023-04-29T06:25:11.152Z,31.45
2023-04-29T06:26:11.184Z,31.46
2023-04-29T06:27:11.239Z,31.43
2023-04-29T06:28:11.285Z,31.41
2023-04-29T06:29:11.303Z,31.40
2023-04-29T06:30:11.347Z,31.39
2023-04-29T06:31:11.426Z,31.33
2023-04-29T06:32:11.409Z,31.30
2023-04-29T06:33:11.565Z,31.29
2023-04-29T06:34:11.499Z,31.28
2023-04-29T06:35:11.501Z,31.24
2023-04-29T06:36:11.532Z,31.23
2023-04-29T06:37:11.574Z,31.22
2023-04-29T06:38:11.592Z,31.22
2023-04-29T06:39:11.619Z,31.18
2023-04-29T06:40:11.644Z,31.06
2023-04-29T06:41:11.653Z,30.98
2023-04-29T06:42:11.697Z,30.97
2023-04-29T06:43:11.668Z,31.00
2023-04-29T06:44:11.702Z,30.81
2023-04-29T06:45:11.680Z,30.38
2023-04-29T06:46:11.676Z,30.18
2023-04-29T06:47:11.808Z,30.20
2023-04-29T06:48:11.822Z,30.28
2023-04-29T06:49:11.658Z,30.41
2023-04-29T06:50:11.649Z,30.49
2023-04-29T06:51:11.603Z,30.50
2023-04-29T06:52:11.662Z,30.43
2023-04-29T06:53:11.540Z,30.40
2023-04-29T06:54:11.553Z,30.30
2023-04-29T06:55:11.510Z,30.03
2023-04-29T06:56:11.452Z,29.74
2023-04-29T06:57:11.433Z,29.54
2023-04-29T06:58:11.395Z,29.42
2023-04-29T06:59:11.405Z,29.29
2023-04-29T07:00:11.368Z,29.20
2023-04-29T07:01:11.379Z,29.22
2023-04-29T07:02:11.312Z,29.43
2023-04-29T07:03:11.455Z,29.44
2023-04-29T07:04:11.266Z,29.37
2023-04-29T07:05:11.213Z,29.47
2023-04-29T07:06:11.208Z,29.57
2023-04-29T07:07:11.207Z,29.65
2023-04-29T07:08:11.214Z,29.65
2023-04-29T07:09:11.240Z,29.75
2023-04-29T07:10:11.216Z,29.91
2023-04-29T07:11:11.181Z,30.02
2023-04-29T07:12:11.192Z,30.08
2023-04-29T07:13:11.205Z,30.08
2023-04-29T07:14:11.189Z,30.04
2023-04-29T07:15:11.207Z,30.11
2023-04-29T07:16:11.236Z,30.17
2023-04-29T07:17:13.913Z,30.23
2023-04-29T07:18:11.237Z,30.31
2023-04-29T07:19:11.177Z,30.35
2023-04-29T07:20:11.093Z,30.31
2023-04-29T07:21:11.078Z,30.27
2023-04-29T07:22:11.010Z,30.26
2023-04-29T07:23:10.994Z,30.35
2023-04-29T07:24:10.929Z,30.34
2023-04-29T07:25:10.899Z,30.37
2023-04-29T07:26:10.864Z,30.34
2023-04-29T07:27:10.826Z,30.32
2023-04-29T07:28:10.810Z,30.29
2023-04-29T07:29:10.759Z,30.30
2023-04-29T07:30:10.716Z,30.31
2023-04-29T07:31:10.768Z,30.30
2023-04-29T07:32:10.667Z,30.30
2023-04-29T07:33:10.610Z,30.30
2023-04-29T07:34:10.585Z,30.24
2023-04-29T07:35:10.599Z,30.23
2023-04-29T07:36:10.522Z,30.25
2023-04-29T07:37:10.479Z,30.25
2023-04-29T07:38:10.454Z,30.24
2023-04-29T07:39:10.415Z,30.29
2023-04-29T07:40:10.375Z,30.37
2023-04-29T07:41:10.340Z,30.43
2023-04-29T07:42:10.306Z,30.39
2023-04-29T07:43:10.282Z,30.41
2023-04-29T07:44:10.250Z,30.37
2023-04-29T07:45:10.215Z,30.33
2023-04-29T07:46:10.225Z,30.33
2023-04-29T07:47:10.158Z,30.35
2023-04-29T07:48:10.099Z,30.43
2023-04-29T07:49:10.068Z,30.48
2023-04-29T07:50:10.032Z,30.46
2023-04-29T07:51:09.984Z,30.41
2023-04-29T07:52:09.958Z,30.43
2023-04-29T07:53:09.935Z,30.35
2023-04-29T07:54:09.882Z,30.34
2023-04-29T07:55:09.840Z,30.33
2023-04-29T07:56:09.827Z,30.43
2023-04-29T07:57:09.769Z,30.42
2023-04-29T07:58:09.738Z,30.43
2023-04-29T07:59:09.698Z,30.39
2023-04-29T08:00:09.663Z,30.38
2023-04-29T08:01:09.630Z,30.36
2023-04-29T08:02:09.596Z,30.40
2023-04-29T08:03:09.651Z,30.37
2023-04-29T08:04:09.751Z,30.35
2023-04-29T08:05:09.837Z,30.36
2023-04-29T08:06:09.570Z,30.34
2023-04-29T08:07:09.424Z,30.36
2023-04-29T08:08:09.406Z,30.36
2023-04-29T08:09:09.340Z,30.37
2023-04-29T08:10:09.332Z,30.36
2023-04-29T08:11:09.270Z,30.40
2023-04-29T08:12:09.238Z,30.38
2023-04-29T08:13:09.218Z,30.39
2023-04-29T08:14:09.175Z,30.41
2023-04-29T08:15:09.940Z,30.42
2023-04-29T08:16:09.163Z,30.42
2023-04-29T08:17:09.082Z,30.41
2023-04-29T08:18:09.187Z,30.40
2023-04-29T08:19:09.014Z,30.40
2023-04-29T08:20:08.986Z,30.39
2023-04-29T08:21:08.963Z,30.41
2023-04-29T08:22:09.055Z,30.40
2023-04-29T08:23:09.028Z,30.40
2023-04-29T08:24:08.963Z,30.39
2023-04-29T08:25:09.025Z,30.37
2023-04-29T08:26:09.119Z,30.35
2023-04-29T08:27:09.021Z,30.36
2023-04-29T08:28:09.067Z,30.34
2023-04-29T08:29:09.067Z,30.37
2023-04-29T08:30:09.099Z,30.35
2023-04-29T08:31:09.123Z,30.37
2023-04-29T08:32:09.094Z,30.37
2023-04-29T08:33:09.118Z,30.39
2023-04-29T08:34:09.134Z,30.39
2023-04-29T08:35:09.131Z,30.38
2023-04-29T08:36:09.150Z,30.37
2023-04-29T08:37:09.168Z,30.38
2023-04-29T08:38:09.189Z,30.34
2023-04-29T08:39:09.230Z,30.33
2023-04-29T08:40:09.279Z,30.37
2023-04-29T08:41:09.304Z,30.44
2023-04-29T08:42:09.318Z,30.42
2023-04-29T08:43:09.359Z,30.41
2023-04-29T08:44:09.397Z,30.40
2023-04-29T08:45:09.426Z,30.43
2023-04-29T08:46:09.448Z,30.42
2023-04-29T08:47:09.357Z,30.47
2023-04-29T08:48:09.439Z,30.46
2023-04-29T08:49:09.275Z,30.49
2023-04-29T08:50:09.281Z,30.46
2023-04-29T08:51:09.202Z,30.43
2023-04-29T08:52:09.164Z,30.41
2023-04-29T08:53:09.134Z,30.42
2023-04-29T08:54:09.102Z,30.44
2023-04-29T08:55:09.048Z,30.40
2023-04-29T08:56:09.016Z,30.40
2023-04-29T08:57:09.013Z,30.39
2023-04-29T08:58:08.979Z,30.37
2023-04-29T08:59:08.986Z,30.41
2023-04-29T09:00:08.982Z,30.39
2023-04-29T09:01:09.045Z,30.37
2023-04-29T09:02:09.058Z,30.34
2023-04-29T09:03:09.124Z,30.34
2023-04-29T09:04:09.133Z,30.34
2023-04-29T09:05:09.166Z,30.32
2023-04-29T09:06:09.152Z,30.33
2023-04-29T09:07:09.156Z,30.33
2023-04-29T09:08:09.198Z,30.35
2023-04-29T09:09:09.157Z,30.29
2023-04-29T09:10:09.135Z,30.37
2023-04-29T09:11:09.064Z,30.40
2023-04-29T09:12:09.045Z,30.40
2023-04-29T09:13:09.000Z,30.36
2023-04-29T09:14:08.960Z,30.37
2023-04-29T09:15:08.925Z,30.38
2023-04-29T09:16:08.919Z,30.38
2023-04-29T09:17:08.851Z,30.41
2023-04-29T09:18:08.852Z,30.42
2023-04-29T09:19:08.792Z,30.45
2023-04-29T09:20:08.803Z,30.39
2023-04-29T09:21:08.819Z,30.37
2023-04-29T09:22:08.880Z,30.36
2023-04-29T09:23:08.879Z,30.39
2023-04-29T09:24:08.876Z,30.34
2023-04-29T09:25:08.919Z,30.35
2023-04-29T09:26:08.945Z,30.31
2023-04-29T09:27:08.988Z,30.30
2023-04-29T09:28:09.020Z,30.27
2023-04-29T09:29:09.049Z,30.26
2023-04-29T09:30:09.071Z,30.28
2023-04-29T09:31:09.142Z,30.21
2023-04-29T09:32:09.148Z,30.22
2023-04-29T09:33:09.293Z,30.26
2023-04-29T09:34:09.204Z,30.24
2023-04-29T09:35:09.237Z,30.23
2023-04-29T09:36:09.275Z,30.20
2023-04-29T09:37:09.307Z,30.21
2023-04-29T09:38:09.341Z,30.21
2023-04-29T09:39:09.349Z,30.16
2023-04-29T09:40:09.366Z,30.17
2023-04-29T09:41:09.382Z,30.14
2023-04-29T09:42:09.423Z,30.12
2023-04-29T09:43:09.456Z,30.12
2023-04-29T09:44:09.482Z,30.11
2023-04-29T09:45:09.513Z,30.08
2023-04-29T09:46:09.536Z,30.13
2023-04-29T09:47:09.579Z,30.12
2023-04-29T09:48:09.567Z,30.10
2023-04-29T09:49:09.586Z,30.07
2023-04-29T09:50:09.624Z,30.07
2023-04-29T09:51:09.656Z,30.08
2023-04-29T09:52:09.719Z,30.04
2023-04-29T09:53:09.711Z,30.07
2023-04-29T09:54:09.726Z,30.09
2023-04-29T09:55:09.747Z,30.11
2023-04-29T09:56:09.777Z,30.11
2023-04-29T09:57:09.813Z,30.15
2023-04-29T09:58:10.548Z,30.16
2023-04-29T09:59:09.848Z,30.14
2023-04-29T10:00:09.876Z,30.14
2023-04-29T10:01:10.001Z,30.10
2023-04-29T10:02:09.913Z,30.06
2023-04-29T10:03:09.996Z,30.06
2023-04-29T10:04:09.964Z,30.04
2023-04-29T10:05:10.045Z,30.01
2023-04-29T10:06:10.038Z,30.00
2023-04-29T10:07:10.019Z,29.99
2023-04-29T10:08:10.034Z,29.96
2023-04-29T10:09:10.061Z,29.93
2023-04-29T10:10:10.082Z,29.91
2023-04-29T10:11:10.092Z,29.92
2023-04-29T10:12:10.126Z,29.91
2023-04-29T10:13:10.154Z,29.89
2023-04-29T10:14:10.120Z,29.87
2023-04-29T10:15:10.100Z,29.84
2023-04-29T10:16:10.070Z,29.80
2023-04-29T10:17:10.000Z,29.79
2023-04-29T10:18:10.034Z,29.78
2023-04-29T10:19:09.934Z,29.72
2023-04-29T10:20:09.887Z,29.76
2023-04-29T10:21:09.872Z,29.73
2023-04-29T10:22:09.822Z,29.69
2023-04-29T10:23:09.783Z,29.66
2023-04-29T10:24:09.808Z,29.66
2023-04-29T10:25:09.815Z,29.62
2023-04-29T10:26:09.830Z,29.62
2023-04-29T10:27:09.855Z,29.57
2023-04-29T10:28:09.890Z,29.58
2023-04-29T10:29:09.903Z,29.60
2023-04-29T10:30:09.911Z,29.58
2023-04-29T10:31:10.038Z,29.60
2023-04-29T10:32:09.951Z,29.59
2023-04-29T10:33:10.009Z,29.59
2023-04-29T10:34:10.046Z,29.58
2023-04-29T10:35:10.032Z,29.54
2023-04-29T10:36:10.047Z,29.57
2023-04-29T10:37:10.063Z,29.56
2023-04-29T10:38:10.100Z,29.53
2023-04-29T10:39:10.124Z,29.53
2023-04-29T10:40:10.144Z,29.53
2023-04-29T10:41:10.243Z,29.51
2023-04-29T10:42:10.182Z,29.46
2023-04-29T10:43:10.258Z,29.47
2023-04-29T10:44:10.230Z,29.42
2023-04-29T10:45:10.263Z,29.44
2023-04-29T10:46:10.433Z,29.43
2023-04-29T10:47:10.323Z,29.40
2023-04-29T10:48:10.309Z,29.38
2023-04-29T10:49:10.323Z,29.35
2023-04-29T10:50:10.359Z,29.38
2023-04-29T10:51:10.373Z,29.32
2023-04-29T10:52:10.378Z,29.34
2023-04-29T10:53:10.407Z,29.33
2023-04-29T10:54:10.410Z,29.33
2023-04-29T10:55:10.444Z,29.27
2023-04-29T10:56:10.444Z,29.28
2023-04-29T10:57:10.488Z,29.26
2023-04-29T10:58:10.485Z,29.25
2023-04-29T10:59:10.510Z,29.25
2023-04-29T11:00:10.517Z,29.23
2023-04-29T11:01:10.587Z,29.24
2023-04-29T11:02:10.556Z,29.24
2023-04-29T11:03:10.641Z,29.23
2023-04-29T11:04:10.883Z,29.24
2023-04-29T11:05:10.675Z,29.26
2023-04-29T11:06:10.684Z,29.27
2023-04-29T11:07:10.667Z,29.27
2023-04-29T11:08:10.707Z,29.26
2023-04-29T11:09:10.721Z,29.28
2023-04-29T11:10:10.735Z,29.27
2023-04-29T11:11:10.753Z,29.26
2023-04-29T11:12:10.783Z,29.25
2023-04-29T11:13:10.806Z,29.27
2023-04-29T11:14:10.825Z,29.24
2023-04-29T11:15:10.845Z,29.26
2023-04-29T11:16:10.920Z,29.24
2023-04-29T11:17:10.875Z,29.20
2023-04-29T11:18:10.961Z,29.19
2023-04-29T11:19:10.939Z,29.18
2023-04-29T11:20:10.951Z,29.17
2023-04-29T11:21:10.999Z,29.19
2023-04-29T11:22:11.041Z,29.19
2023-04-29T11:23:11.049Z,29.16
2023-04-29T11:24:11.038Z,29.15
2023-04-29T11:25:11.063Z,29.15
2023-04-29T11:26:11.107Z,29.12
2023-04-29T11:27:11.108Z,29.11
2023-04-29T11:28:11.132Z,29.13
2023-04-29T11:29:11.160Z,29.08
2023-04-29T11:30:11.167Z,29.10
2023-04-29T11:31:11.249Z,29.09
2023-04-29T11:32:11.294Z,29.11
2023-04-29T11:33:11.368Z,29.10
2023-04-29T11:34:11.247Z,29.05
2023-04-29T11:35:11.266Z,29.06
2023-04-29T11:36:11.292Z,29.08
2023-04-29T11:37:11.310Z,29.08
2023-04-29T11:38:11.325Z,29.05
2023-04-29T11:39:11.338Z,29.04
2023-04-29T11:40:11.450Z,29.01
2023-04-29T11:41:11.409Z,28.98
2023-04-29T11:42:11.374Z,28.96
2023-04-29T11:43:11.388Z,28.96
2023-04-29T11:44:11.411Z,28.98
2023-04-29T11:45:11.415Z,28.96
2023-04-29T11:46:11.448Z,28.95
2023-04-29T11:47:11.434Z,28.93
2023-04-29T11:48:11.482Z,28.94
2023-04-29T11:49:11.479Z,28.90
2023-04-29T11:50:11.488Z,28.89
2023-04-29T11:51:11.388Z,28.85
2023-04-29T11:52:11.354Z,28.85
2023-04-29T11:53:11.326Z,28.77
2023-04-29T11:54:11.290Z,28.78
2023-04-29T11:55:11.247Z,28.78
2023-04-29T11:56:11.217Z,28.79
2023-04-29T11:57:11.181Z,28.75
2023-04-29T11:58:11.153Z,28.77
2023-04-29T11:59:11.119Z,28.73
2023-04-29T12:00:11.067Z,28.72
2023-04-29T12:01:11.058Z,28.73
2023-04-29T12:02:11.024Z,28.71
2023-04-29T12:03:11.085Z,28.68
2023-04-29T12:04:11.156Z,28.68
2023-04-29T12:05:11.066Z,28.67
2023-04-29T12:06:10.954Z,28.66
2023-04-29T12:07:10.966Z,28.68
2023-04-29T12:08:10.909Z,28.69
2023-04-29T12:09:10.884Z,28.66
2023-04-29T12:10:11.022Z,28.61
2023-04-29T12:11:10.803Z,28.63
2023-04-29T12:12:10.767Z,28.62
2023-04-29T12:13:10.750Z,28.59
2023-04-29T12:14:10.720Z,28.60
2023-04-29T12:15:10.768Z,28.59
2023-04-29T12:16:10.653Z,28.59
2023-04-29T12:17:10.616Z,28.58
2023-04-29T12:18:10.610Z,28.58
2023-04-29T12:19:10.563Z,28.56
2023-04-29T12:20:10.794Z,28.56
2023-04-29T12:21:10.512Z,28.55
2023-04-29T12:22:10.531Z,28.58
2023-04-29T12:23:10.556Z,28.61
2023-04-29T12:24:10.616Z,28.58
2023-04-29T12:25:10.634Z,28.54
2023-04-29T12:26:10.648Z,28.53
2023-04-29T12:27:10.647Z,28.55
2023-04-29T12:28:10.674Z,28.55
2023-04-29T12:29:10.690Z,28.55
2023-04-29T12:30:10.800Z,28.54
2023-04-29T12:31:10.741Z,28.55
2023-04-29T12:32:10.738Z,28.55
2023-04-29T12:33:10.817Z,28.57
2023-04-29T12:34:10.766Z,28.58
2023-04-29T12:35:10.805Z,28.57
2023-04-29T12:36:10.798Z,28.57
2023-04-29T12:37:10.814Z,28.60
2023-04-29T12:38:10.835Z,28.58
2023-04-29T12:39:10.850Z,28.61
2023-04-29T12:40:10.879Z,28.62
2023-04-29T12:41:10.882Z,28.61
2023-04-29T12:42:10.903Z,28.57
2023-04-29T12:43:10.941Z,28.60
2023-04-29T12:44:11.082Z,28.57
2023-04-29T12:45:10.984Z,28.63
2023-04-29T12:46:10.998Z,28.62
2023-04-29T12:47:11.105Z,28.63
2023-04-29T12:48:22.149Z,28.62
2023-04-29T12:49:12.031Z,28.60
2023-04-29T12:50:11.139Z,28.56
2023-04-29T12:51:10.926Z,28.54
2023-04-29T12:52:10.905Z,28.54